Time;durP1;ratioP1;P1;durP2;ratioP2;P2;SDS_P1;SDS_P2;PMS_P1;PMS_P2;Temp;Humidity;BMP_temperature;BMP_pressure;BME280_temperature;BME280_humidity;BME280_pressure;Samples;Min_cycle;Max_cycle;Signal;HPM_P1;HPM_P2
2021/12/31 00:00:11;;;;;;;5.65;1.73;;;14.90;90.90;;;;;;6271750;28;20049;-78
2021/12/31 00:03:13;;;;;;;3.42;1.55;;;14.90;90.90;;;;;;6272710;28;20056;-78
2021/12/31 00:06:15;;;;;;;5.65;1.67;;;14.90;91.00;;;;;;6271674;28;20075;-77
2021/12/31 00:09:17;;;;;;;1.77;1.20;;;14.90;90.90;;;;;;6272445;28;20053;-77
2021/12/31 00:12:19;;;;;;;2.35;1.20;;;14.90;91.00;;;;;;6272163;28;20395;-77
2021/12/31 00:15:22;;;;;;;2.22;1.52;;;14.80;91.00;;;;;;6276428;28;20524;-77
2021/12/31 00:18:24;;;;;;;3.53;1.75;;;14.80;91.10;;;;;;6277189;28;20506;-77
2021/12/31 00:21:25;;;;;;;3.38;1.90;;;14.80;91.00;;;;;;6277283;28;20044;-77
2021/12/31 00:24:27;;;;;;;3.75;1.27;;;14.70;91.10;;;;;;6276957;28;20052;-77
2021/12/31 00:27:29;;;;;;;4.18;1.60;;;14.70;91.20;;;;;;6276920;28;20486;-78
2021/12/31 00:30:33;;;;;;;4.80;1.45;;;14.70;91.20;;;;;;6277869;28;20052;-77
2021/12/31 00:33:35;;;;;;;3.03;1.13;;;14.60;91.10;;;;;;6278825;28;20114;-78
2021/12/31 00:36:40;;;;;;;5.25;2.10;;;14.60;91.30;;;;;;6277837;28;20103;-78
2021/12/31 00:39:42;;;;;;;5.80;1.33;;;14.60;91.20;;;;;;6278378;28;20187;-78
2021/12/31 00:42:44;;;;;;;3.47;1.70;;;14.60;91.20;;;;;;6278753;28;20045;-78
2021/12/31 00:45:47;;;;;;;2.80;1.50;;;14.60;91.30;;;;;;6277715;28;20041;-78
2021/12/31 00:48:49;;;;;;;4.35;1.92;;;14.60;91.20;;;;;;6277951;28;20045;-78
2021/12/31 00:51:52;;;;;;;4.20;1.60;;;14.60;91.20;;;;;;6277467;28;20068;-78
2021/12/31 00:54:53;;;;;;;2.15;1.20;;;14.60;91.20;;;;;;6278127;28;20049;-78
2021/12/31 00:57:55;;;;;;;4.55;1.23;;;14.60;91.30;;;;;;6277180;28;20066;-78
2021/12/31 01:00:58;;;;;;;2.92;1.10;;;14.50;91.40;;;;;;6277032;28;20619;-78
2021/12/31 01:04:00;;;;;;;8.63;1.83;;;14.50;91.20;;;;;;6276979;28;20033;-77
2021/12/31 01:07:02;;;;;;;3.10;1.23;;;14.40;91.20;;;;;;6281734;28;20048;-78
2021/12/31 01:10:05;;;;;;;4.45;1.73;;;14.20;91.40;;;;;;6278097;28;20037;-78
2021/12/31 01:13:12;;;;;;;5.47;1.73;;;14.10;91.60;;;;;;6276766;28;20131;-78
2021/12/31 01:16:16;;;;;;;4.50;1.65;;;14.10;91.80;;;;;;6276196;28;20418;-78
2021/12/31 01:22:38;;;;;;;2.97;1.48;;;14.00;91.70;;;;;;6278581;28;20049;-78
2021/12/31 01:25:39;;;;;;;5.50;1.65;;;13.90;91.70;;;;;;6277304;28;20041;-78
2021/12/31 01:28:42;;;;;;;3.20;1.45;;;13.80;91.80;;;;;;6278243;28;20195;-78
2021/12/31 01:31:45;;;;;;;3.85;1.88;;;13.70;91.90;;;;;;6278002;28;20056;-78
2021/12/31 01:34:46;;;;;;;3.25;1.52;;;13.50;92.00;;;;;;6277473;28;20055;-78
2021/12/31 01:37:48;;;;;;;7.40;2.15;;;13.40;92.10;;;;;;6276492;28;20133;-78
2021/12/31 01:40:51;;;;;;;4.03;1.75;;;13.30;92.20;;;;;;6276351;28;20504;-79
2021/12/31 01:43:52;;;;;;;6.20;1.42;;;13.30;92.40;;;;;;6276847;28;20047;-78
2021/12/31 01:46:58;;;;;;;4.93;1.80;;;13.20;92.40;;;;;;6277004;28;20048;-80
2021/12/31 01:50:05;;;;;;;2.80;1.58;;;13.10;92.50;;;;;;6276929;28;20049;-80
2021/12/31 01:53:07;;;;;;;7.40;1.73;;;13.00;92.60;;;;;;6276842;28;20052;-79
2021/12/31 01:56:09;;;;;;;3.78;1.85;;;12.90;92.60;;;;;;6275425;28;20067;-77
2021/12/31 01:59:13;;;;;;;8.43;2.25;;;12.90;92.60;;;;;;6275729;28;20049;-78
2021/12/31 02:02:17;;;;;;;3.40;1.77;;;12.80;92.70;;;;;;6276163;28;20041;-79
2021/12/31 02:05:19;;;;;;;4.72;2.00;;;12.70;92.70;;;;;;6276751;28;20041;-79
2021/12/31 02:08:21;;;;;;;6.75;2.47;;;12.70;92.80;;;;;;6276203;28;20127;-79
2021/12/31 02:11:23;;;;;;;5.53;2.10;;;12.60;92.80;;;;;;6276151;28;20139;-80
2021/12/31 02:14:25;;;;;;;3.03;1.95;;;12.60;92.90;;;;;;6275475;28;20127;-79
2021/12/31 02:17:28;;;;;;;10.68;2.40;;;12.50;93.20;;;;;;6274757;28;20191;-80
2021/12/31 02:20:41;;;;;;;3.80;1.77;;;12.40;92.80;;;;;;6275504;28;20057;-79
2021/12/31 02:23:46;;;;;;;3.13;1.92;;;12.40;92.90;;;;;;6275157;28;20490;-79
2021/12/31 02:26:48;;;;;;;4.85;2.83;;;12.30;92.80;;;;;;6276236;28;20052;-78
2021/12/31 02:29:49;;;;;;;4.13;2.17;;;12.30;92.90;;;;;;6275323;28;20118;-77
2021/12/31 02:32:51;;;;;;;6.05;2.22;;;12.20;92.90;;;;;;6276704;28;20064;-77
2021/12/31 02:35:54;;;;;;;6.63;3.00;;;12.20;92.90;;;;;;6275460;28;20041;-78
2021/12/31 02:38:56;;;;;;;4.15;2.13;;;12.10;92.80;;;;;;6276098;28;20088;-78
2021/12/31 02:41:58;;;;;;;4.72;2.20;;;12.10;92.80;;;;;;6276089;28;20467;-78
2021/12/31 02:45:00;;;;;;;4.47;1.92;;;12.00;92.80;;;;;;6275799;28;20045;-78
2021/12/31 02:48:03;;;;;;;4.55;1.95;;;11.90;92.80;;;;;;6275626;28;20513;-78
2021/12/31 02:51:07;;;;;;;3.22;1.63;;;11.80;92.80;;;;;;6275167;28;20120;-77
2021/12/31 02:54:12;;;;;;;5.95;2.17;;;11.70;92.70;;;;;;6274041;28;20055;-78
2021/12/31 02:57:15;;;;;;;4.63;1.83;;;11.60;92.70;;;;;;6275328;28;20041;-78
2021/12/31 03:00:18;;;;;;;3.15;1.80;;;11.60;92.80;;;;;;6275619;28;20149;-78
2021/12/31 03:03:21;;;;;;;7.15;2.55;;;11.50;92.70;;;;;;6276068;28;20056;-78
2021/12/31 03:06:24;;;;;;;6.72;2.55;;;11.50;92.80;;;;;;6274264;28;20052;-77
2021/12/31 03:09:27;;;;;;;4.63;2.15;;;11.40;92.70;;;;;;6275310;28;20673;-78
2021/12/31 03:12:29;;;;;;;5.68;1.88;;;11.30;92.70;;;;;;6275147;28;20049;-78
2021/12/31 03:15:31;;;;;;;4.50;1.90;;;11.30;92.70;;;;;;6275120;28;20407;-78
2021/12/31 03:18:33;;;;;;;8.05;1.80;;;11.20;92.60;;;;;;6275205;28;20130;-80
2021/12/31 03:21:36;;;;;;;9.57;2.22;;;11.10;92.60;;;;;;6274634;28;20652;-77
2021/12/31 03:24:38;;;;;;;3.60;1.52;;;11.10;92.60;;;;;;6272533;28;20051;-77
2021/12/31 03:27:40;;;;;;;5.53;1.77;;;11.00;92.60;;;;;;6272235;28;20049;-77
2021/12/31 03:30:42;;;;;;;5.65;1.88;;;10.90;92.60;;;;;;6272999;28;20523;-77
2021/12/31 03:33:44;;;;;;;7.22;1.92;;;10.80;92.60;;;;;;6271995;28;20068;-78
2021/12/31 03:36:47;;;;;;;8.90;1.83;;;10.70;92.60;;;;;;6271631;28;20175;-77
2021/12/31 03:39:49;;;;;;;3.13;1.88;;;10.60;92.70;;;;;;6272415;28;20147;-77
2021/12/31 03:42:51;;;;;;;5.07;1.70;;;10.50;92.70;;;;;;6273125;28;20049;-77
2021/12/31 03:45:53;;;;;;;3.50;1.50;;;10.50;92.70;;;;;;6271961;28;20037;-77
2021/12/31 03:48:55;;;;;;;7.32;1.80;;;10.40;92.80;;;;;;6271978;28;20052;-77
2021/12/31 03:51:58;;;;;;;14.30;2.47;;;10.30;92.80;;;;;;6272567;28;20124;-77
2021/12/31 03:55:00;;;;;;;9.48;2.10;;;10.30;92.80;;;;;;6273137;28;20055;-78
2021/12/31 03:58:02;;;;;;;4.15;1.88;;;10.20;92.80;;;;;;6273167;28;20123;-78
2021/12/31 04:01:04;;;;;;;9.32;2.17;;;10.20;92.80;;;;;;6273307;28;20510;-78
2021/12/31 04:04:07;;;;;;;5.40;1.60;;;10.10;92.80;;;;;;6274304;28;20047;-78
2021/12/31 04:07:11;;;;;;;2.42;1.33;;;10.00;92.70;;;;;;6274506;28;20049;-77
2021/12/31 04:10:12;;;;;;;3.17;1.60;;;9.90;92.70;;;;;;6273824;28;20055;-78
2021/12/31 04:13:14;;;;;;;5.78;1.77;;;9.90;92.80;;;;;;6273312;28;20040;-78
2021/12/31 04:16:16;;;;;;;11.13;2.03;;;9.80;92.80;;;;;;6271992;28;20041;-77
2021/12/31 04:19:18;;;;;;;4.22;1.70;;;9.70;92.80;;;;;;6273824;28;20063;-77
2021/12/31 04:22:23;;;;;;;4.40;2.15;;;9.60;92.80;;;;;;6273392;28;20056;-77
2021/12/31 04:25:25;;;;;;;8.05;1.95;;;9.50;92.90;;;;;;6272931;28;20446;-77
2021/12/31 04:28:29;;;;;;;3.92;1.48;;;9.50;93.00;;;;;;6273575;28;20068;-77
2021/12/31 04:31:30;;;;;;;7.03;1.70;;;9.50;92.90;;;;;;6273252;28;20083;-77
2021/12/31 04:34:33;;;;;;;5.80;1.75;;;9.40;92.90;;;;;;6272627;28;20055;-77
2021/12/31 04:37:36;;;;;;;4.38;1.95;;;9.30;92.80;;;;;;6272361;28;20052;-77
2021/12/31 04:40:38;;;;;;;12.52;4.38;;;9.30;92.90;;;;;;6272541;28;20439;-77
2021/12/31 04:43:39;;;;;;;3.80;1.60;;;9.20;93.00;;;;;;6272305;28;20059;-76
2021/12/31 04:46:41;;;;;;;4.10;1.50;;;9.20;93.00;;;;;;6271989;28;20040;-77
2021/12/31 04:49:43;;;;;;;6.38;2.00;;;9.20;93.00;;;;;;6271378;28;20533;-77
2021/12/31 04:52:47;;;;;;;6.03;1.83;;;9.10;92.90;;;;;;6271157;28;20124;-77
2021/12/31 04:55:50;;;;;;;6.55;2.08;;;9.10;92.90;;;;;;6270980;28;20045;-77
2021/12/31 04:58:52;;;;;;;5.32;2.22;;;9.10;92.90;;;;;;6272495;28;20059;-77
2021/12/31 05:01:53;;;;;;;5.65;2.22;;;9.10;92.90;;;;;;6275991;28;20051;-77
2021/12/31 05:04:55;;;;;;;4.35;1.90;;;9.10;92.90;;;;;;6276786;28;20391;-77
2021/12/31 05:07:58;;;;;;;4.88;2.10;;;9.00;92.80;;;;;;6277490;28;20052;-77
2021/12/31 05:11:00;;;;;;;12.20;1.77;;;9.00;92.90;;;;;;6277595;28;20055;-77
2021/12/31 05:14:03;;;;;;;5.38;2.13;;;8.90;92.90;;;;;;6277131;28;20399;-77
2021/12/31 05:17:05;;;;;;;12.10;2.72;;;8.90;92.90;;;;;;6276766;28;20045;-77
2021/12/31 05:20:07;;;;;;;5.68;1.88;;;8.80;92.90;;;;;;6277551;28;20045;-78
2021/12/31 05:23:11;;;;;;;12.15;2.70;;;8.80;92.90;;;;;;6277989;28;20045;-78
2021/12/31 05:26:13;;;;;;;7.82;2.35;;;8.70;92.80;;;;;;6276906;28;20076;-77
2021/12/31 05:29:14;;;;;;;17.85;3.45;;;8.70;92.90;;;;;;6278924;28;20127;-78
2021/12/31 05:32:16;;;;;;;5.30;2.17;;;8.60;92.90;;;;;;6280447;28;20422;-78
2021/12/31 05:35:18;;;;;;;6.35;3.20;;;8.60;92.90;;;;;;6280360;28;20422;-78
2021/12/31 05:38:21;;;;;;;6.43;2.35;;;8.50;92.90;;;;;;6279710;28;20507;-78
2021/12/31 05:41:23;;;;;;;9.68;3.40;;;8.50;92.90;;;;;;6280094;28;20123;-79
2021/12/31 05:44:25;;;;;;;10.40;3.00;;;8.50;92.90;;;;;;6279370;28;20045;-78
2021/12/31 05:47:26;;;;;;;10.75;2.97;;;8.50;92.90;;;;;;6279883;28;20059;-79
2021/12/31 05:50:28;;;;;;;6.85;2.25;;;8.50;92.90;;;;;;6280354;28;20053;-77
2021/12/31 05:53:32;;;;;;;5.25;2.05;;;8.40;92.80;;;;;;6279315;28;20536;-78
2021/12/31 05:56:34;;;;;;;6.07;2.38;;;8.40;92.80;;;;;;6279158;28;20041;-78
2021/12/31 05:59:36;;;;;;;5.82;2.47;;;8.30;92.80;;;;;;6281702;28;20108;-77
2021/12/31 06:02:38;;;;;;;5.70;2.65;;;8.20;92.80;;;;;;6281031;28;20055;-78
2021/12/31 06:05:39;;;;;;;8.68;2.55;;;8.20;92.80;;;;;;6279908;28;20047;-79
2021/12/31 06:08:42;;;;;;;5.15;2.28;;;8.20;92.80;;;;;;6279822;28;20366;-78
2021/12/31 06:11:45;;;;;;;10.10;2.10;;;8.20;92.80;;;;;;6278883;28;20057;-78
2021/12/31 06:14:48;;;;;;;8.43;2.20;;;8.10;92.70;;;;;;6278862;28;20057;-78
2021/12/31 06:17:50;;;;;;;5.43;1.77;;;8.10;92.70;;;;;;6279500;28;20083;-79
2021/12/31 06:20:52;;;;;;;4.88;2.08;;;8.10;93.00;;;;;;6279239;28;20124;-79
2021/12/31 06:23:55;;;;;;;9.90;2.63;;;8.00;92.60;;;;;;6276788;28;20045;-78
2021/12/31 06:26:57;;;;;;;10.30;4.07;;;8.00;92.60;;;;;;6275216;28;20049;-77
2021/12/31 06:29:59;;;;;;;9.85;3.72;;;8.00;92.60;;;;;;6273455;28;20068;-78
2021/12/31 06:33:01;;;;;;;6.75;2.60;;;7.90;92.60;;;;;;6273610;28;20503;-77
2021/12/31 06:36:03;;;;;;;5.75;1.85;;;8.00;92.60;;;;;;6273249;28;20045;-77
2021/12/31 06:39:06;;;;;;;21.00;2.75;;;8.00;92.60;;;;;;6274222;28;20045;-77
2021/12/31 06:42:09;;;;;;;3.92;1.98;;;8.00;92.50;;;;;;6274049;28;20045;-78
2021/12/31 06:45:11;;;;;;;7.38;2.92;;;8.00;92.50;;;;;;6275449;28;20525;-77
2021/12/31 06:48:12;;;;;;;4.43;1.60;;;8.00;92.60;;;;;;6273722;28;20473;-77
2021/12/31 06:51:14;;;;;;;7.82;2.17;;;7.80;92.40;;;;;;6273655;28;20056;-77
2021/12/31 06:54:18;;;;;;;3.63;1.75;;;7.90;92.50;;;;;;6273187;28;20133;-77
2021/12/31 06:57:20;;;;;;;10.07;2.10;;;7.80;92.60;;;;;;6273056;28;20041;-77
2021/12/31 07:00:22;;;;;;;6.50;2.33;;;7.80;92.60;;;;;;6276595;28;20037;-78
2021/12/31 07:03:24;;;;;;;11.20;2.13;;;7.70;92.60;;;;;;6278434;28;20063;-79
2021/12/31 07:06:25;;;;;;;4.35;2.25;;;7.70;92.60;;;;;;6277417;28;20069;-78
2021/12/31 07:09:28;;;;;;;9.57;2.10;;;7.60;92.60;;;;;;6276269;28;20052;-77
2021/12/31 07:12:30;;;;;;;4.00;1.80;;;7.60;92.70;;;;;;6276079;28;20418;-78
2021/12/31 07:15:32;;;;;;;4.10;1.88;;;7.60;92.70;;;;;;6274400;28;20045;-78
2021/12/31 07:18:34;;;;;;;3.70;1.83;;;7.50;92.70;;;;;;6275273;28;20119;-78
2021/12/31 07:21:36;;;;;;;5.13;1.92;;;7.50;92.80;;;;;;6272443;28;20052;-78
2021/12/31 07:24:39;;;;;;;8.98;2.40;;;7.50;92.80;;;;;;6272156;28;20120;-76
2021/12/31 07:27:41;;;;;;;6.13;1.70;;;7.50;92.70;;;;;;6274980;28;20072;-79
2021/12/31 07:30:43;;;;;;;3.75;1.80;;;7.50;92.70;;;;;;6273657;28;20075;-77
2021/12/31 07:33:45;;;;;;;3.53;1.92;;;7.50;92.70;;;;;;6273748;28;20053;-78
2021/12/31 07:36:47;;;;;;;3.58;1.48;;;7.50;92.70;;;;;;6274349;28;20041;-78
2021/12/31 07:39:58;;;;;;;4.22;1.33;;;7.50;92.60;;;;;;6275875;28;20044;-78
2021/12/31 07:43:00;;;;;;;5.15;2.00;;;7.50;92.70;;;;;;6277815;28;20049;-78
2021/12/31 07:46:02;;;;;;;7.30;1.98;;;7.50;92.70;;;;;;6275685;28;20116;-78
2021/12/31 07:49:03;;;;;;;9.80;1.88;;;7.50;92.70;;;;;;6273601;28;20068;-77
2021/12/31 07:52:06;;;;;;;4.07;1.63;;;7.50;92.60;;;;;;6273681;28;20171;-78
2021/12/31 07:55:10;;;;;;;5.32;1.77;;;7.60;92.60;;;;;;6273435;28;20055;-78
2021/12/31 07:58:12;;;;;;;3.38;1.73;;;7.70;92.60;;;;;;6273130;28;20052;-78
2021/12/31 08:01:14;;;;;;;4.63;2.17;;;7.70;92.50;;;;;;6271966;28;20080;-78
2021/12/31 08:04:15;;;;;;;4.63;1.33;;;7.70;92.50;;;;;;6272139;28;20044;-77
2021/12/31 08:07:17;;;;;;;2.50;1.40;;;7.70;92.60;;;;;;6271983;28;20049;-77
2021/12/31 08:10:21;;;;;;;3.92;1.83;;;7.70;92.60;;;;;;6271048;28;20143;-77
2021/12/31 08:13:24;;;;;;;7.55;1.90;;;7.80;92.60;;;;;;6271389;28;20049;-77
2021/12/31 08:16:26;;;;;;;6.75;1.65;;;7.80;92.50;;;;;;6270745;28;20048;-77
2021/12/31 08:19:28;;;;;;;4.05;2.80;;;7.90;92.70;;;;;;6271860;28;20056;-77
2021/12/31 08:22:30;;;;;;;7.45;1.88;;;8.00;92.90;;;;;;6272600;28;20053;-77
2021/12/31 08:25:33;;;;;;;15.77;2.13;;;8.30;92.40;;;;;;6272088;28;20561;-78
2021/12/31 08:28:35;;;;;;;6.22;1.85;;;8.40;92.20;;;;;;6272533;28;20041;-78
2021/12/31 08:31:36;;;;;;;6.20;2.15;;;8.50;92.40;;;;;;6236791;28;20522;-78
2021/12/31 08:34:38;;;;;;;7.57;2.92;;;8.60;92.50;;;;;;6269238;28;20048;-80
2021/12/31 08:37:40;;;;;;;10.80;2.85;;;8.80;92.90;;;;;;6281784;28;20127;-80
2021/12/31 08:40:43;;;;;;;5.57;2.13;;;9.30;93.30;;;;;;6280322;28;20215;-80
2021/12/31 08:43:45;;;;;;;6.85;2.33;;;9.70;92.70;;;;;;6280850;28;20107;-80
2021/12/31 08:46:48;;;;;;;2.83;1.65;;;10.00;92.30;;;;;;6280550;28;20095;-80
2021/12/31 08:49:49;;;;;;;3.35;1.35;;;10.30;92.30;;;;;;6279387;28;20498;-79
2021/12/31 08:52:51;;;;;;;2.50;1.70;;;10.70;92.30;;;;;;6280565;28;20044;-79
2021/12/31 08:55:54;;;;;;;2.30;0.80;;;11.00;91.90;;;;;;6280445;28;20053;-79
2021/12/31 08:58:56;;;;;;;4.00;1.35;;;11.40;92.00;;;;;;6281406;28;20077;-80
2021/12/31 09:01:59;;;;;;;3.90;1.60;;;11.80;91.50;;;;;;6281053;28;20067;-78
2021/12/31 09:05:00;;;;;;;5.55;2.42;;;12.10;91.30;;;;;;6281902;28;20092;-79
2021/12/31 09:08:02;;;;;;;9.63;8.10;;;12.50;91.30;;;;;;6282643;28;20037;-78
2021/12/31 09:11:05;;;;;;;6.28;4.25;;;12.90;91.20;;;;;;6255504;28;20054;-79
2021/12/31 09:14:07;;;;;;;7.57;4.13;;;13.30;90.80;;;;;;6257528;28;20041;-78
2021/12/31 09:17:09;;;;;;;5.20;2.78;;;13.60;90.60;;;;;;6258187;28;20044;-78
2021/12/31 09:20:12;;;;;;;2.95;1.70;;;13.90;89.60;;;;;;6250865;28;20069;-78
2021/12/31 09:23:13;;;;;;;6.20;1.20;;;14.10;88.50;;;;;;6259601;28;20053;-78
2021/12/31 09:26:17;;;;;;;12.95;8.93;;;14.30;88.00;;;;;;6260728;28;20041;-79
2021/12/31 09:29:21;;;;;;;20.13;9.57;;;14.60;87.60;;;;;;6258371;28;20099;-80
2021/12/31 09:32:23;;;;;;;36.90;17.27;;;14.90;86.70;;;;;;6258948;28;20045;-79
2021/12/31 09:35:25;;;;;;;14.77;6.25;;;15.20;84.50;;;;;;6231853;28;20053;-80
2021/12/31 09:38:27;;;;;;;12.80;6.78;;;15.60;84.50;;;;;;6235011;28;20050;-80
2021/12/31 09:41:30;;;;;;;16.15;9.98;;;15.90;82.70;;;;;;6231822;28;20096;-82
2021/12/31 09:44:33;;;;;;;3.35;2.47;;;16.30;80.80;;;;;;6230943;28;20204;-80
2021/12/31 09:47:34;;;;;;;6.60;4.30;;;16.50;78.80;;;;;;6246141;28;20037;-80
2021/12/31 09:50:37;;;;;;;3.30;2.13;;;16.90;78.30;;;;;;6248444;28;20041;-79
2021/12/31 09:53:39;;;;;;;8.55;7.05;;;17.10;76.20;;;;;;6250280;28;20091;-79
2021/12/31 09:56:42;;;;;;;6.53;3.78;;;17.30;75.30;;;;;;6257469;28;20438;-79
2021/12/31 09:59:46;;;;;;;12.68;5.32;;;17.50;74.40;;;;;;6257555;28;21517;-80
2021/12/31 10:03:08;;;;;;;8.45;3.42;;;17.70;72.70;;;;;;6256130;28;20195;-80
2021/12/31 10:06:11;;;;;;;4.32;2.50;;;17.80;73.10;;;;;;6256096;28;20041;-78
2021/12/31 10:09:13;;;;;;;4.43;3.00;;;17.90;72.00;;;;;;6256334;28;20119;-77
2021/12/31 10:12:16;;;;;;;7.38;3.45;;;18.00;70.40;;;;;;6255664;28;20073;-78
2021/12/31 10:15:21;;;;;;;8.80;3.80;;;18.00;71.00;;;;;;6254686;28;20503;-79
2021/12/31 10:18:29;;;;;;;6.43;3.40;;;18.10;69.80;;;;;;6245979;28;20044;-79
2021/12/31 10:21:38;;;;;;;8.25;4.28;;;17.90;70.50;;;;;;6239987;28;20054;-78
2021/12/31 10:24:41;;;;;;;7.68;2.88;;;17.80;69.50;;;;;;6230373;28;20060;-78
2021/12/31 10:27:44;;;;;;;10.43;7.05;;;17.70;69.50;;;;;;6232462;28;20065;-79
2021/12/31 10:30:45;;;;;;;32.58;22.80;;;17.40;71.10;;;;;;6252641;28;20056;-78
2021/12/31 10:33:48;;;;;;;6.93;3.92;;;17.10;71.40;;;;;;6252152;28;20051;-80
2021/12/31 10:36:50;;;;;;;7.50;4.10;;;16.90;72.60;;;;;;6252090;28;20038;-79
2021/12/31 10:39:56;;;;;;;6.10;3.42;;;16.90;73.40;;;;;;6254567;28;20045;-82
2021/12/31 10:43:15;;;;;;;4.95;3.28;;;17.10;73.50;;;;;;6256296;28;20072;-83
2021/12/31 10:46:19;;;;;;;5.85;2.80;;;17.30;72.40;;;;;;6249206;28;20515;-82
2021/12/31 10:49:21;;;;;;;5.57;2.85;;;17.60;72.40;;;;;;6238033;28;20057;-83
2021/12/31 10:52:25;;;;;;;6.70;4.05;;;17.90;71.40;;;;;;6230543;28;20042;-83
2021/12/31 10:55:30;;;;;;;14.02;5.47;;;18.20;70.40;;;;;;6232255;28;20054;-84
2021/12/31 10:58:34;;;;;;;4.85;4.05;;;18.60;69.40;;;;;;6232181;28;20137;-82
2021/12/31 11:01:35;;;;;;;6.00;2.85;;;18.90;68.20;;;;;;6228387;28;20056;-79
2021/12/31 11:04:37;;;;;;;3.97;2.38;;;19.10;67.00;;;;;;6227422;28;20056;-80
2021/12/31 11:07:40;;;;;;;9.88;7.50;;;19.30;65.80;;;;;;6226933;28;20423;-79
2021/12/31 11:10:42;;;;;;;6.07;4.43;;;19.20;66.60;;;;;;6227421;28;20243;-79
2021/12/31 11:13:46;;;;;;;9.30;6.50;;;19.30;66.90;;;;;;6226972;28;20128;-79
2021/12/31 11:16:48;;;;;;;7.72;5.25;;;19.50;66.00;;;;;;6239882;28;20052;-80
2021/12/31 11:19:50;;;;;;;7.80;5.28;;;19.80;65.70;;;;;;6247837;28;20047;-79
2021/12/31 11:22:53;;;;;;;12.00;7.95;;;20.10;65.10;;;;;;6242211;28;20061;-78
2021/12/31 11:25:57;;;;;;;25.40;13.20;;;20.30;63.70;;;;;;6240886;28;20072;-82
2021/12/31 11:29:15;;;;;;;13.98;7.93;;;20.20;63.60;;;;;;6253282;28;20192;-79
2021/12/31 11:32:17;;;;;;;19.48;9.63;;;20.10;63.90;;;;;;6252427;28;20045;-79
2021/12/31 11:35:40;;;;;;;12.07;6.90;;;19.90;63.90;;;;;;6253415;28;20059;-78
2021/12/31 11:38:46;;;;;;;21.40;10.70;;;19.60;64.70;;;;;;6252680;28;20052;-78
2021/12/31 11:41:49;;;;;;;27.52;13.15;;;19.30;64.70;;;;;;6253976;28;20107;-79
2021/12/31 11:45:07;;;;;;;24.35;11.98;;;18.90;65.70;;;;;;6251586;28;20046;-77
2021/12/31 11:48:39;;;;;;;;;;;18.60;66.10;;;;;;6243647;28;20423;-79
2021/12/31 11:51:56;;;;;;;31.83;14.70;;;18.30;66.90;;;;;;6229491;28;20427;-79
2021/12/31 11:55:17;;;;;;;18.05;9.32;;;18.20;67.90;;;;;;6276894;28;20052;-80
2021/12/31 11:58:40;;;;;;;10.88;6.25;;;18.30;67.90;;;;;;6273260;28;20045;-79
2021/12/31 12:01:46;;;;;;;14.93;8.27;;;18.30;68.10;;;;;;6268621;28;20056;-80
2021/12/31 12:05:17;;;;;;;12.32;7.28;;;18.30;68.20;;;;;;6274583;28;20056;-80
2021/12/31 12:08:26;;;;;;;5.72;3.58;;;18.20;68.10;;;;;;6274763;28;20044;-80
2021/12/31 12:11:59;;;;;;;9.50;4.35;;;17.80;68.50;;;;;;6274192;28;20059;-79
2021/12/31 12:15:03;;;;;;;17.52;9.60;;;17.60;70.30;;;;;;6273803;28;20044;-78
2021/12/31 12:18:06;;;;;;;4.43;2.97;;;17.80;71.00;;;;;;6273026;28;20372;-79
2021/12/31 12:21:08;;;;;;;15.20;8.85;;;18.10;70.40;;;;;;6265343;28;20523;-79
2021/12/31 12:24:11;;;;;;;9.88;5.18;;;18.50;69.90;;;;;;6265386;28;20147;-81
2021/12/31 12:27:14;;;;;;;10.73;4.68;;;19.00;69.00;;;;;;6250099;28;20385;-81
2021/12/31 12:30:17;;;;;;;8.30;4.65;;;19.40;67.50;;;;;;6255001;28;20418;-81
2021/12/31 12:33:25;;;;;;;4.35;2.53;;;19.70;66.40;;;;;;6273703;28;20068;-79
2021/12/31 12:36:27;;;;;;;5.78;2.70;;;19.90;65.60;;;;;;6273630;28;20056;-81
2021/12/31 12:39:30;;;;;;;3.53;1.90;;;19.90;64.20;;;;;;6274579;28;20597;-80
2021/12/31 12:42:33;;;;;;;3.60;2.45;;;19.50;65.00;;;;;;6274767;28;20121;-80
2021/12/31 12:45:39;;;;;;;6.68;2.63;;;19.00;65.80;;;;;;6274892;28;20051;-82
2021/12/31 12:48:46;;;;;;;3.72;2.20;;;18.70;67.70;;;;;;6291423;28;20136;-82
2021/12/31 12:51:48;;;;;;;4.63;2.95;;;18.50;68.30;;;;;;6289093;28;20110;-81
2021/12/31 12:55:08;;;;;;;4.50;2.65;;;18.20;68.90;;;;;;6278434;28;20056;-83
2021/12/31 12:58:21;;;;;;;5.95;2.33;;;18.00;70.10;;;;;;6278469;28;20048;-82
2021/12/31 13:01:32;;;;;;;3.75;2.28;;;18.40;70.00;;;;;;6278314;28;20073;-83
2021/12/31 13:04:35;;;;;;;4.80;2.28;;;18.40;69.90;;;;;;6277668;28;20049;-83
2021/12/31 13:07:37;;;;;;;4.22;2.58;;;18.60;69.80;;;;;;6277181;28;20176;-83
2021/12/31 13:10:39;;;;;;;3.53;2.40;;;18.80;68.80;;;;;;6278274;28;20048;-83
2021/12/31 13:13:40;;;;;;;5.15;3.13;;;18.80;68.80;;;;;;6278565;28;20047;-83
2021/12/31 13:16:43;;;;;;;32.70;18.95;;;18.80;69.00;;;;;;6277359;28;20060;-83
2021/12/31 13:19:47;;;;;;;4.43;2.63;;;18.70;68.80;;;;;;6276730;28;20045;-83
2021/12/31 13:22:56;;;;;;;3.42;2.13;;;18.60;69.00;;;;;;6281715;28;20418;-84
2021/12/31 13:25:58;;;;;;;4.38;2.15;;;18.30;69.80;;;;;;6260388;28;20702;-83
2021/12/31 13:29:02;;;;;;;4.45;2.30;;;18.20;70.50;;;;;;6257009;28;20049;-83
2021/12/31 13:32:06;;;;;;;4.03;2.17;;;18.20;71.10;;;;;;6263471;28;20417;-82
2021/12/31 13:35:12;;;;;;;4.07;1.83;;;18.30;71.00;;;;;;6280946;28;20114;-82
2021/12/31 13:38:14;;;;;;;4.57;2.22;;;18.20;70.80;;;;;;6280998;28;20126;-83
2021/12/31 13:41:21;;;;;;;5.57;2.70;;;18.10;71.70;;;;;;6280752;28;20194;-83
2021/12/31 13:44:25;;;;;;;5.47;2.25;;;18.10;71.60;;;;;;6279878;28;20545;-82
2021/12/31 13:47:28;;;;;;;5.85;2.03;;;18.10;72.00;;;;;;6279818;28;20045;-82
2021/12/31 13:50:32;;;;;;;4.78;1.95;;;18.20;72.10;;;;;;6280362;28;20134;-80
2021/12/31 13:53:35;;;;;;;4.05;2.00;;;18.30;71.90;;;;;;6279329;28;20098;-81
2021/12/31 13:56:40;;;;;;;10.65;2.75;;;18.50;71.10;;;;;;6278383;28;20450;-81
2021/12/31 13:59:42;;;;;;;6.68;2.10;;;18.40;70.60;;;;;;6279422;28;20045;-81
2021/12/31 14:02:44;;;;;;;7.70;2.22;;;18.20;70.90;;;;;;6279718;28;20056;-81
2021/12/31 14:05:48;;;;;;;9.77;2.13;;;18.10;71.20;;;;;;6272727;28;20124;-82
2021/12/31 14:08:50;;;;;;;4.15;1.83;;;18.10;71.50;;;;;;6253902;28;20137;-81
2021/12/31 14:11:53;;;;;;;3.17;1.70;;;18.10;71.80;;;;;;6254384;28;20037;-79
2021/12/31 14:14:55;;;;;;;3.30;1.55;;;18.00;71.10;;;;;;6257051;28;20127;-81
2021/12/31 14:17:57;;;;;;;4.97;1.70;;;18.00;71.70;;;;;;6278990;28;20142;-81
2021/12/31 14:21:00;;;;;;;44.42;20.63;;;18.10;71.80;;;;;;6278259;28;20045;-78
2021/12/31 14:24:02;;;;;;;2.28;1.40;;;18.20;71.20;;;;;;6276361;28;20410;-82
2021/12/31 14:27:06;;;;;;;3.42;1.77;;;18.20;71.00;;;;;;6276194;28;20573;-78
2021/12/31 14:30:11;;;;;;;3.20;1.27;;;18.10;70.20;;;;;;6275455;28;20045;-80
2021/12/31 14:33:13;;;;;;;2.45;1.55;;;17.90;70.30;;;;;;6275011;28;20048;-80
2021/12/31 14:36:17;;;;;;;6.50;1.60;;;17.70;70.70;;;;;;6275360;28;20120;-80
2021/12/31 14:39:20;;;;;;;8.35;2.10;;;17.40;71.30;;;;;;6276694;28;20067;-80
2021/12/31 14:42:25;;;;;;;4.53;2.53;;;17.00;72.20;;;;;;6277427;28;20045;-79
2021/12/31 14:45:27;;;;;;;3.47;1.80;;;16.80;73.00;;;;;;6275904;28;20059;-80
2021/12/31 14:48:29;;;;;;;4.90;1.35;;;16.50;73.90;;;;;;6277287;28;20056;-81
2021/12/31 14:51:32;;;;;;;3.92;1.63;;;16.30;74.70;;;;;;6276373;28;20048;-79
2021/12/31 14:54:34;;;;;;;3.15;1.33;;;16.10;75.60;;;;;;6276594;28;20510;-79
2021/12/31 14:57:37;;;;;;;8.48;2.35;;;15.80;76.40;;;;;;6276818;28;20052;-79
2021/12/31 15:00:39;;;;;;;6.82;2.58;;;15.70;77.60;;;;;;6275879;28;20045;-79
2021/12/31 15:03:41;;;;;;;6.47;3.10;;;15.40;78.50;;;;;;6277217;28;20510;-79
2021/12/31 15:06:44;;;;;;;5.00;2.92;;;15.20;79.50;;;;;;6278632;28;20556;-79
2021/12/31 15:09:46;;;;;;;7.35;2.90;;;15.00;80.30;;;;;;6278463;28;20127;-82
2021/12/31 15:12:52;;;;;;;5.13;3.08;;;14.80;81.30;;;;;;6277347;28;20041;-83
2021/12/31 15:15:54;;;;;;;5.88;2.60;;;14.70;82.10;;;;;;6277560;28;20051;-83
2021/12/31 15:18:56;;;;;;;5.53;3.80;;;14.50;82.70;;;;;;6277478;28;20513;-82
2021/12/31 15:21:59;;;;;;;5.20;3.00;;;14.30;83.40;;;;;;6278482;28;20045;-82
2021/12/31 15:25:03;;;;;;;6.18;3.10;;;14.20;84.10;;;;;;6276772;28;20064;-81
2021/12/31 15:28:06;;;;;;;63.17;36.53;;;14.10;84.80;;;;;;6265527;28;20457;-80
2021/12/31 15:31:07;;;;;;;17.67;9.88;;;13.90;85.60;;;;;;6278826;28;20503;-82
2021/12/31 15:34:09;;;;;;;11.32;6.30;;;13.80;85.80;;;;;;6276884;28;20123;-81
2021/12/31 15:37:12;;;;;;;11.00;6.82;;;13.70;86.30;;;;;;6276810;28;20052;-82
2021/12/31 15:40:14;;;;;;;8.05;4.47;;;13.70;86.80;;;;;;6277718;28;20041;-81
2021/12/31 15:43:16;;;;;;;9.50;4.65;;;13.50;87.60;;;;;;6275770;28;20049;-80
2021/12/31 15:46:17;;;;;;;9.57;4.88;;;13.40;87.90;;;;;;6273474;28;20124;-81
2021/12/31 15:49:19;;;;;;;15.40;7.70;;;13.40;88.00;;;;;;6295196;28;20043;-79
2021/12/31 15:52:22;;;;;;;9.95;5.35;;;13.30;88.50;;;;;;6302086;28;20047;-81
2021/12/31 15:55:25;;;;;;;9.27;4.68;;;13.20;88.50;;;;;;6301723;28;20052;-80
2021/12/31 15:58:27;;;;;;;7.40;4.55;;;13.20;88.90;;;;;;6283866;28;20055;-81